Silvio Pettirossi International Airport
SGAS : rendu visible

Aérodrome :











RETROUVEZ-NOUS SUR...

 
LOGIN :

S'inscrire | Disclaimer

   EN    FR    IT 

 









Légende :    VFR   VFR Marginal   IFR   IFR Intensif   IFR Très Intensif
Visi : 
Plafond : 
>= 8 km
>= 3000ft
5 à 8 km
1000 à 3000 ft
1500m à 5 km
500 à 1000 ft
800 à 1500m
200 à 500 ft
< 800m
< 200 ft
Symboles :   Orages  Brouillard  Fortes neiges  Fortes précipitations  Vent > 20 kt






- Altitude de l'aérodrome : 292 ft
- Code IATA : ASU


SGAS - Silvio Pettirossi International

DERNIER METAR :
  • 040900Z 19006KT 8000 -RA OVC007 16/16 Q1016

METARs EXPIRÉS :
  • 040800Z 19005KT 3000 RA OVC007 16/16 Q1016
  • 040700Z 19006KT 5000 RA OVC010 16/16 Q1017 RETS

TAF COR TAF SGAS
Valide du 04 à 06h jusqu'au 05 à 06h UTC


040500Z 0406/0506 VRB05KT 5000 TSRA OVC015 FEW040CB TX20/0419Z TN14/0409Z
BECMG 0409/0411 24007KT 3000 RABR OVC010
TEMPO 0412/0414 18006KT 9999 BKN010
PROB40 0415/0417 19012KT 5000 TSRA OVC010 FEW040CB
BECMG 0418/0419 19006KT 8000 RA OVC010
PROB40 0421/0423 20008KT 5000 TSRA OVC010 FEW040CB
FIR SGFA / Amérique du Sud



MET'MAP, la Météo Aéronautique d'un coup d'oeil ! - Copyright ORBIFLY Décembre 2007 - Disclaimer

ORBIFLY MET'MAP TEAM :

Programmation & Développement : Alexandra Zaïnal
Sur une idée originale de : Baudouin d'Aumeries
Assistance à la programmation : Marc-Olivier Méhu
Soutien technique & logistique : Manuel Goepfert

Contact : metmap@orbifly.com




SOURCES & CREDITS :

   NOAA       Earth
Advisory